Time;durP1;ratioP1;P1;durP2;ratioP2;P2;SDS_P1;SDS_P2;PMS_P1;PMS_P2;Temp;Humidity;BMP_temperature;BMP_pressure;BME280_temperature;BME280_humidity;BME280_pressure;Samples;Min_cycle;Max_cycle;Signal;HPM_P1;HPM_P2
2022/12/02 00:00:25;;;;;;;29.10;14.50;;;3.80;99.90;;;7.30;58.95;97982.88;5003794;28;20050;-54
2022/12/02 00:02:55;;;;;;;26.87;15.67;;;3.80;99.90;;;7.35;58.58;97987.78;5003101;28;20155;-57
2022/12/02 00:05:29;;;;;;;28.80;14.93;;;3.80;99.90;;;7.20;58.61;97978.53;5003299;28;20050;-56
2022/12/02 00:08:10;;;;;;;27.10;15.90;;;3.70;99.90;;;7.13;58.58;97982.66;4979611;28;20046;-56
2022/12/02 00:10:38;;;;;;;30.73;16.80;;;3.70;99.90;;;6.99;58.82;97976.72;5002617;28;20056;-56
2022/12/02 00:13:24;;;;;;;28.93;15.07;;;3.60;99.90;;;6.85;59.14;97975.25;5002874;28;20052;-55
2022/12/02 00:16:01;;;;;;;31.03;15.70;;;3.70;99.90;;;7.03;59.10;97982.59;5002858;28;20253;-57
2022/12/02 00:18:30;;;;;;;32.10;16.80;;;3.60;99.90;;;7.15;59.20;97976.25;5002597;28;20046;-56
2022/12/02 00:20:58;;;;;;;35.20;16.60;;;3.70;99.90;;;7.18;58.50;97976.00;5002309;28;20046;-55
2022/12/02 00:23:25;;;;;;;32.57;16.00;;;3.70;99.90;;;7.20;59.17;97976.69;5004392;28;20371;-56
2022/12/02 00:25:54;;;;;;;33.07;17.63;;;3.70;99.90;;;7.19;58.58;97977.69;5002613;28;20052;-57
2022/12/02 00:28:22;;;;;;;34.77;17.90;;;3.70;99.90;;;7.19;58.84;97975.03;5002614;28;20044;-53
2022/12/02 00:30:50;;;;;;;32.77;17.13;;;3.70;99.90;;;7.23;58.82;97968.50;5002970;28;20349;-55
2022/12/02 00:33:18;;;;;;;29.40;15.70;;;3.70;99.90;;;7.19;58.57;97967.09;5002589;28;20222;-57
2022/12/02 00:35:46;;;;;;;33.70;16.90;;;3.70;99.90;;;7.26;58.59;97964.75;5002317;28;20060;-55
2022/12/02 00:38:14;;;;;;;29.60;17.63;;;3.70;99.90;;;7.23;58.59;97962.34;4985548;28;20050;-55
2022/12/02 00:40:42;;;;;;;26.27;14.83;;;3.80;99.90;;;7.15;59.24;97952.41;5001629;28;20054;-57
2022/12/02 00:48:44;;;;;;;27.30;14.77;;;3.70;99.90;;;6.96;59.40;97953.19;5002969;28;20053;-55
2022/12/02 00:51:12;;;;;;;30.33;15.03;;;3.60;99.90;;;7.04;59.25;97950.72;5018168;28;20041;-53
2022/12/02 00:53:40;;;;;;;29.33;16.07;;;3.60;99.90;;;6.89;59.91;97949.38;5002352;28;20053;-54
2022/12/02 00:56:08;;;;;;;34.03;16.10;;;3.60;99.90;;;6.97;59.22;97952.19;5002917;28;20041;-56
2022/12/02 00:58:35;;;;;;;31.50;17.77;;;3.60;99.90;;;6.95;59.61;97940.06;5018190;28;20364;-54
2022/12/02 01:01:03;;;;;;;32.10;18.00;;;3.60;99.90;;;6.98;59.36;97948.59;5018098;28;20052;-57
2022/12/02 01:03:32;;;;;;;33.23;17.40;;;3.60;99.90;;;7.08;59.53;97940.69;5003168;28;20054;-55
2022/12/02 01:06:00;;;;;;;36.47;17.83;;;3.60;99.90;;;7.13;59.50;97940.28;5017999;28;20382;-55
2022/12/02 01:08:28;;;;;;;31.80;17.57;;;3.70;99.90;;;7.03;59.96;97941.06;5001827;28;20049;-56
2022/12/02 01:10:57;;;;;;;32.43;17.30;;;3.60;99.90;;;7.09;59.52;97937.06;5017705;28;20241;-57
2022/12/02 01:13:26;;;;;;;36.30;18.03;;;3.70;99.90;;;7.06;59.51;97927.59;5002745;28;20042;-56
2022/12/02 01:15:55;;;;;;;36.47;17.20;;;3.60;99.90;;;7.13;59.50;97929.69;5002944;28;20046;-55
2022/12/02 01:18:23;;;;;;;38.47;18.47;;;3.70;99.90;;;7.23;59.50;97933.22;5001334;28;20050;-56
2022/12/02 01:20:51;;;;;;;36.63;18.07;;;3.70;99.90;;;7.22;59.52;97935.03;5000996;28;20056;-55
2022/12/02 01:23:19;;;;;;;32.87;16.57;;;3.70;99.90;;;7.25;59.25;97926.84;4982350;28;20252;-55
2022/12/02 01:25:47;;;;;;;32.73;17.67;;;3.80;99.90;;;7.24;59.50;97933.09;5017056;28;20061;-54
2022/12/02 01:28:16;;;;;;;34.80;17.27;;;3.70;99.90;;;7.28;59.40;97923.91;5017813;28;20050;-56
2022/12/02 01:30:45;;;;;;;37.63;18.67;;;3.80;99.90;;;7.30;58.72;97921.13;5001208;28;20049;-56
2022/12/02 01:33:13;;;;;;;36.43;17.83;;;3.70;99.90;;;7.27;59.19;97919.59;5001059;28;20058;-56
2022/12/02 01:35:41;;;;;;;36.47;19.00;;;3.70;99.90;;;7.28;58.83;97917.78;5017439;28;20056;-55
2022/12/02 01:38:09;;;;;;;35.50;19.50;;;3.70;99.90;;;7.19;59.62;97923.88;5001541;28;20069;-53
2022/12/02 01:40:37;;;;;;;32.50;17.93;;;3.70;99.90;;;7.08;59.38;97923.00;5001281;28;20049;-55
2022/12/02 01:43:05;;;;;;;36.33;19.40;;;3.60;99.90;;;7.14;59.32;97920.78;4985349;28;20052;-55
2022/12/02 01:45:33;;;;;;;37.70;18.07;;;3.60;99.90;;;7.07;59.72;97912.53;5002210;28;20050;-57
2022/12/02 01:48:02;;;;;;;36.03;18.73;;;3.60;99.90;;;7.14;59.74;97918.16;5002395;28;20046;-56
2022/12/02 01:50:31;;;;;;;36.57;18.50;;;3.60;99.90;;;7.00;59.71;97914.88;4999371;28;20664;-56
2022/12/02 01:52:59;;;;;;;36.27;20.27;;;3.60;99.90;;;7.08;59.69;97914.22;4984545;28;20054;-56
2022/12/02 01:55:28;;;;;;;32.70;17.57;;;3.60;99.90;;;7.02;59.64;97915.59;5001296;28;20050;-57
2022/12/02 01:57:57;;;;;;;41.40;19.77;;;3.60;99.90;;;7.07;59.55;97910.72;5033527;28;20058;-53
2022/12/02 02:00:26;;;;;;;35.53;18.90;;;3.60;99.90;;;7.02;59.78;97915.59;5000837;28;20377;-56
2022/12/02 02:02:55;;;;;;;44.37;18.90;;;3.60;99.90;;;7.16;59.61;97905.63;4994326;28;20053;-53
2022/12/02 02:05:29;;;;;;;31.63;16.83;;;3.60;99.90;;;7.08;59.85;97908.94;5002178;28;20035;-57
2022/12/02 02:08:06;;;;;;;38.17;19.03;;;3.60;99.90;;;7.10;59.38;97914.94;4995382;28;20043;-55
2022/12/02 02:10:37;;;;;;;34.37;17.40;;;3.60;99.90;;;7.05;60.07;97909.19;5004470;28;20058;-53
2022/12/02 02:13:08;;;;;;;38.37;18.43;;;3.60;99.90;;;7.17;59.70;97910.75;5005581;28;20050;-55
2022/12/02 02:15:41;;;;;;;42.00;18.37;;;3.60;99.90;;;7.28;59.62;97907.19;5005368;28;20201;-56
2022/12/02 02:18:10;;;;;;;34.37;16.77;;;3.70;99.90;;;7.12;59.78;97907.69;4988764;28;20054;-56
2022/12/02 02:20:40;;;;;;;38.53;18.47;;;3.70;99.90;;;7.16;60.15;97903.78;5020445;28;20285;-57
2022/12/02 02:23:08;;;;;;;41.07;17.40;;;3.60;99.90;;;7.16;59.75;97908.25;5004297;28;20089;-55
2022/12/02 02:25:51;;;;;;;33.33;18.17;;;3.60;99.90;;;7.18;59.53;97912.44;5021192;28;20104;-58
2022/12/02 02:28:23;;;;;;;36.80;17.93;;;3.70;99.90;;;7.21;59.61;97911.31;4989295;28;20049;-57
2022/12/02 02:30:54;;;;;;;38.10;18.57;;;3.70;99.90;;;7.19;59.27;97898.25;5004200;28;20268;-55
2022/12/02 02:33:28;;;;;;;35.75;17.58;;;3.70;99.90;;;7.21;59.12;97892.78;5005158;28;20272;-57
2022/12/02 02:35:56;;;;;;;36.63;17.20;;;3.70;99.90;;;7.26;59.33;97898.53;4996387;28;20048;-56
2022/12/02 02:38:27;;;;;;;36.57;19.13;;;3.70;99.90;;;7.24;59.38;97889.88;5004618;28;20100;-55
2022/12/02 02:40:57;;;;;;;36.77;18.53;;;3.70;99.90;;;7.06;59.93;97893.16;5003977;28;20056;-54
2022/12/02 02:43:28;;;;;;;37.57;18.23;;;3.60;99.90;;;7.16;59.85;97892.38;5004706;28;20046;-57
2022/12/02 02:45:57;;;;;;;32.57;16.70;;;3.60;99.90;;;6.94;60.57;97894.25;4996219;28;20046;-56
2022/12/02 02:48:33;;;;;;;39.37;18.80;;;3.60;99.90;;;7.10;59.57;97891.94;4989243;28;20073;-57
2022/12/02 02:51:02;;;;;;;42.07;17.63;;;3.60;99.90;;;7.08;60.27;97893.88;5004001;28;20042;-54
2022/12/02 02:53:31;;;;;;;36.50;17.30;;;3.60;99.90;;;6.97;59.81;97891.31;5005388;28;20042;-56
2022/12/02 02:56:00;;;;;;;34.47;18.07;;;3.60;99.90;;;6.84;60.11;97888.03;4987592;28;20043;-56
2022/12/02 02:58:33;;;;;;;32.97;19.60;;;3.40;99.90;;;7.05;59.76;97880.06;5003932;28;20264;-56
2022/12/02 03:01:35;;;;;;;36.80;17.17;;;3.60;99.90;;;7.12;59.51;97883.03;5011757;28;20050;-56
2022/12/02 03:04:09;;;;;;;36.90;19.37;;;3.70;99.90;;;7.20;59.53;97884.03;4988552;28;20046;-55
2022/12/02 03:06:40;;;;;;;41.63;18.73;;;3.60;99.90;;;7.21;59.73;97880.41;5004053;28;20048;-53
2022/12/02 03:09:11;;;;;;;42.23;20.50;;;3.70;99.90;;;7.20;59.89;97881.38;5003736;28;20042;-57
2022/12/02 03:11:41;;;;;;;41.90;19.07;;;3.60;99.90;;;7.05;59.52;97882.72;5005101;28;20252;-57
2022/12/02 03:14:11;;;;;;;36.63;18.73;;;3.60;99.90;;;7.15;60.10;97880.94;5003706;28;20656;-57
2022/12/02 03:16:44;;;;;;;42.97;18.67;;;3.60;99.90;;;7.23;59.79;97881.13;5004218;28;20058;-56
2022/12/02 03:19:13;;;;;;;41.17;20.83;;;3.70;99.90;;;7.27;59.77;97881.69;5003325;28;20052;-56
2022/12/02 03:21:41;;;;;;;38.60;17.40;;;3.70;99.90;;;7.27;59.38;97876.41;5003681;28;20050;-56
2022/12/02 03:24:09;;;;;;;36.53;18.60;;;3.70;99.90;;;7.16;59.89;97866.72;5003900;28;20042;-55
2022/12/02 03:26:39;;;;;;;37.97;18.07;;;3.60;99.90;;;7.21;58.96;97869.81;5003759;28;20072;-56
2022/12/02 03:29:10;;;;;;;43.13;17.67;;;3.70;99.90;;;7.19;59.10;97869.13;5002998;28;20341;-57
2022/12/02 03:31:38;;;;;;;38.60;19.40;;;3.60;99.90;;;7.10;59.37;97865.44;5003310;28;20062;-57
2022/12/02 03:34:08;;;;;;;37.33;19.17;;;3.60;99.90;;;7.13;59.85;97864.34;5003520;28;20068;-56
2022/12/02 03:36:36;;;;;;;33.70;18.13;;;3.60;99.90;;;7.20;59.71;97868.13;5003614;28;20050;-55
2022/12/02 03:39:05;;;;;;;38.37;19.10;;;3.70;99.90;;;7.22;59.99;97871.47;5003231;28;20057;-54
2022/12/02 03:41:33;;;;;;;43.33;19.90;;;3.70;99.90;;;7.13;59.59;97866.97;5003700;28;20053;-57
2022/12/02 03:44:01;;;;;;;36.83;18.93;;;3.60;99.90;;;6.95;60.48;97863.31;5004513;28;20058;-52
2022/12/02 03:46:29;;;;;;;43.90;20.10;;;3.50;99.90;;;7.04;60.01;97860.69;5003255;28;20058;-55
2022/12/02 03:48:58;;;;;;;37.07;18.90;;;3.60;99.90;;;7.16;60.07;97865.91;5003928;28;20248;-57
2022/12/02 03:51:26;;;;;;;39.47;19.87;;;3.60;99.90;;;7.19;59.24;97866.47;5003340;28;20045;-57
2022/12/02 03:53:55;;;;;;;37.10;18.03;;;3.70;99.90;;;7.12;59.60;97857.38;4994539;28;20252;-56
2022/12/02 03:56:24;;;;;;;37.67;18.10;;;3.70;99.90;;;7.15;60.09;97862.38;5002678;28;20046;-56
2022/12/02 03:58:53;;;;;;;37.10;18.23;;;3.70;99.90;;;7.20;59.78;97860.19;5002814;28;20049;-57
2022/12/02 04:01:22;;;;;;;33.83;17.60;;;3.70;99.90;;;7.21;59.12;97858.38;5004214;28;20182;-56
2022/12/02 04:03:50;;;;;;;44.00;17.87;;;3.70;99.90;;;7.12;59.40;97861.84;5003343;28;20217;-55
2022/12/02 04:06:18;;;;;;;41.07;17.97;;;3.60;99.90;;;7.09;59.63;97857.63;5003973;28;20050;-56
2022/12/02 04:08:46;;;;;;;44.40;22.20;;;3.60;99.90;;;6.89;60.22;97854.91;5002570;28;20042;-56
2022/12/02 04:11:13;;;;;;;40.73;19.80;;;3.50;99.90;;;6.71;61.37;97856.50;5002407;28;20056;-56
2022/12/02 04:13:41;;;;;;;38.73;18.13;;;3.40;99.90;;;6.46;61.76;97848.03;5004236;28;20057;-56
2022/12/02 04:16:09;;;;;;;40.97;18.93;;;3.30;99.90;;;6.76;60.59;97846.34;5004206;28;20053;-56
2022/12/02 04:18:37;;;;;;;34.77;20.97;;;3.40;99.90;;;6.58;60.81;97846.13;5002838;28;20043;-56
2022/12/02 04:21:05;;;;;;;41.03;21.37;;;3.30;99.90;;;6.45;61.54;97846.34;5004187;28;20248;-55
2022/12/02 04:23:33;;;;;;;40.80;19.93;;;3.30;99.90;;;6.68;61.32;97840.91;5003702;28;20052;-57
2022/12/02 04:26:01;;;;;;;39.13;19.07;;;3.30;99.90;;;6.74;60.60;97843.00;5003690;28;20064;-57
2022/12/02 04:28:29;;;;;;;47.07;20.97;;;3.40;99.90;;;6.79;60.57;97839.97;5002193;28;20370;-53
2022/12/02 04:30:56;;;;;;;41.90;18.20;;;3.40;99.90;;;6.75;60.87;97843.88;5002433;28;20042;-56
2022/12/02 04:33:24;;;;;;;41.03;20.67;;;3.40;99.90;;;6.84;60.45;97835.09;5003655;28;20069;-57
2022/12/02 04:35:52;;;;;;;41.77;19.80;;;3.40;99.90;;;6.96;60.75;97831.41;5003534;28;20042;-57
2022/12/02 04:38:20;;;;;;;43.00;21.53;;;3.50;99.90;;;6.97;60.58;97833.06;5003568;28;20042;-57
2022/12/02 04:40:48;;;;;;;39.00;19.50;;;3.50;99.90;;;6.76;61.13;97833.13;5002985;28;20046;-53
2022/12/02 04:43:16;;;;;;;43.87;21.13;;;3.40;99.90;;;6.76;61.21;97822.53;5010460;28;20054;-56
2022/12/02 04:45:43;;;;;;;44.50;19.83;;;3.40;99.90;;;6.86;61.00;97812.84;5003305;28;20255;-56
2022/12/02 04:48:11;;;;;;;43.00;19.00;;;3.50;99.90;;;6.69;61.36;97822.25;5002237;28;20050;-57
2022/12/02 04:50:39;;;;;;;40.27;22.83;;;3.50;99.90;;;6.95;60.17;97816.50;5001261;28;20045;-57
2022/12/02 04:53:07;;;;;;;45.03;19.80;;;3.60;99.90;;;6.93;60.68;97815.78;5000930;28;20120;-55
2022/12/02 04:55:35;;;;;;;46.50;23.47;;;3.60;99.90;;;6.83;61.10;97810.47;5002113;28;20042;-56
2022/12/02 04:58:03;;;;;;;48.77;22.13;;;3.50;99.90;;;6.85;61.02;97811.16;4986148;28;20046;-57
2022/12/02 05:00:30;;;;;;;44.37;20.20;;;3.50;99.90;;;6.85;60.23;97813.81;5002788;28;20069;-56
2022/12/02 05:02:58;;;;;;;43.93;19.50;;;3.40;99.90;;;6.94;60.65;97813.97;5003570;28;20050;-57
2022/12/02 05:05:26;;;;;;;47.80;21.20;;;3.50;99.90;;;7.04;60.61;97815.69;5002983;28;20375;-56
2022/12/02 05:07:54;;;;;;;45.43;20.17;;;3.60;99.90;;;7.15;59.70;97814.72;4995322;28;20076;-56
2022/12/02 05:10:22;;;;;;;42.13;18.50;;;3.60;99.90;;;7.22;59.61;97812.41;5002736;28;20057;-57
2022/12/02 05:12:50;;;;;;;43.87;19.23;;;3.70;99.90;;;7.32;59.72;97817.72;5002806;28;20038;-55
2022/12/02 05:15:19;;;;;;;44.30;19.73;;;3.70;99.90;;;7.22;59.64;97820.34;5002253;28;20052;-54
2022/12/02 05:17:46;;;;;;;41.97;19.33;;;3.70;99.90;;;7.23;60.14;97817.56;5002801;28;20378;-55
2022/12/02 05:20:15;;;;;;;42.47;19.40;;;3.60;99.90;;;7.17;60.22;97810.13;5002276;28;20046;-56
2022/12/02 05:22:43;;;;;;;42.37;20.30;;;3.60;99.90;;;7.16;60.25;97810.28;5002381;28;20256;-57
2022/12/02 05:25:12;;;;;;;37.63;18.57;;;3.60;99.90;;;7.09;60.43;97813.50;5017808;28;20054;-56
2022/12/02 05:27:40;;;;;;;34.97;19.20;;;3.60;99.90;;;7.01;59.75;97805.34;5002475;28;20379;-56
2022/12/02 05:30:10;;;;;;;41.73;20.13;;;3.50;99.90;;;7.04;60.05;97814.88;5000724;28;20045;-56
2022/12/02 05:32:38;;;;;;;43.47;20.03;;;3.50;99.90;;;6.65;61.67;97818.19;5002400;28;20042;-55
2022/12/02 05:35:06;;;;;;;39.20;20.03;;;3.30;99.90;;;6.75;61.18;97807.66;5002591;28;20047;-55
2022/12/02 05:37:34;;;;;;;45.83;20.73;;;3.30;99.90;;;6.93;60.38;97813.16;5002551;28;20049;-56
2022/12/02 05:40:02;;;;;;;39.77;20.00;;;3.40;99.90;;;7.01;60.04;97817.75;5000865;28;20046;-55
2022/12/02 05:42:30;;;;;;;39.47;17.43;;;3.50;99.90;;;7.12;59.66;97815.03;5001461;28;20332;-56
2022/12/02 05:45:05;;;;;;;45.43;21.47;;;3.60;99.90;;;6.92;60.52;97814.13;5001438;28;20046;-56
2022/12/02 05:47:34;;;;;;;48.30;20.40;;;3.50;99.90;;;7.06;60.25;97820.84;5002449;28;20056;-56
2022/12/02 05:50:10;;;;;;;44.87;20.17;;;3.60;99.90;;;7.08;59.84;97810.97;5000912;28;20237;-57
2022/12/02 05:52:38;;;;;;;42.30;19.00;;;3.60;99.90;;;7.09;59.88;97815.28;5001401;28;20054;-57
2022/12/02 05:55:20;;;;;;;40.73;19.30;;;3.60;99.90;;;7.12;60.27;97809.72;5000206;28;20039;-55
2022/12/02 05:57:49;;;;;;;44.77;19.17;;;3.60;99.90;;;7.19;59.70;97804.72;5002313;28;20104;-54
2022/12/02 06:00:22;;;;;;;40.73;21.03;;;3.60;99.90;;;7.28;59.91;97810.03;5000288;28;20052;-57
2022/12/02 06:02:58;;;;;;;40.78;17.17;;;3.80;99.90;;;7.21;59.83;97803.63;5002044;28;20046;-54
2022/12/02 06:05:33;;;;;;;43.47;19.83;;;3.70;99.90;;;7.15;59.82;97803.31;5001074;28;20054;-53
2022/12/02 06:08:17;;;;;;;42.63;19.00;;;3.60;99.90;;;7.18;59.50;97803.88;4994082;28;20049;-55
2022/12/02 06:10:52;;;;;;;41.97;20.67;;;3.60;99.90;;;7.19;59.87;97805.56;5001989;28;20046;-51
2022/12/02 06:13:23;;;;;;;41.87;18.97;;;3.60;99.90;;;6.96;60.36;97812.88;5001125;28;20045;-56
2022/12/02 06:15:53;;;;;;;45.53;21.37;;;3.60;99.90;;;7.13;59.66;97807.91;5001136;28;20391;-57
2022/12/02 06:18:32;;;;;;;43.37;20.03;;;3.60;99.90;;;7.08;59.90;97808.31;5002206;28;20049;-54
2022/12/02 06:21:04;;;;;;;44.10;23.67;;;3.50;99.90;;;6.61;61.14;97808.84;4999970;28;20051;-57
2022/12/02 06:23:32;;;;;;;49.90;22.13;;;3.40;99.90;;;6.82;60.30;97807.94;5002100;28;20057;-53
2022/12/02 06:26:00;;;;;;;45.83;21.83;;;3.40;99.90;;;6.82;60.56;97807.94;5001157;28;20056;-54
2022/12/02 06:28:38;;;;;;;45.33;20.20;;;3.40;99.90;;;6.97;60.64;97808.44;5001074;28;20046;-56
2022/12/02 06:31:13;;;;;;;44.30;23.73;;;3.50;99.90;;;7.01;60.69;97807.19;4993950;28;20038;-56
2022/12/02 06:33:42;;;;;;;46.90;19.27;;;3.60;99.90;;;7.05;60.33;97812.06;5002098;28;20046;-57
2022/12/02 06:36:33;;;;;;;46.90;21.70;;;3.50;99.90;;;7.07;60.61;97794.22;5000877;28;20061;-56
2022/12/02 06:39:19;;;;;;;49.30;21.73;;;3.60;99.90;;;7.19;59.93;97800.28;4991795;28;20054;-56
2022/12/02 06:41:47;;;;;;;46.60;22.50;;;3.60;99.90;;;7.22;60.18;97799.16;5000977;28;20056;-56
2022/12/02 06:47:31;;;;;;;43.77;21.77;;;3.70;99.90;;;7.24;59.57;97800.69;4995378;28;20046;-54
2022/12/02 06:50:05;;;;;;;48.57;20.33;;;3.70;99.90;;;7.12;59.93;97799.13;4994178;28;20077;-57
2022/12/02 06:52:38;;;;;;;44.25;21.77;;;3.70;99.90;;;7.18;59.99;97801.22;5009028;28;20054;-57
2022/12/02 06:55:30;;;;;;;49.60;23.48;;;3.60;99.90;;;7.21;60.21;97794.81;5003427;28;20050;-56
2022/12/02 06:58:12;;;;;;;49.33;25.63;;;3.60;99.90;;;7.15;60.22;97800.66;4996595;28;20052;-57
2022/12/02 07:00:39;;;;;;;56.47;27.10;;;3.60;99.90;;;7.13;59.71;97797.31;5004870;28;20060;-54
2022/12/02 07:03:57;;;;;;;59.10;27.23;;;3.60;99.90;;;6.97;60.22;97801.31;5003926;28;20046;-53
2022/12/02 07:06:28;;;;;;;49.67;21.27;;;3.60;99.90;;;6.98;60.07;97795.06;4975223;28;20064;-54
2022/12/02 07:09:28;;;;;;;49.47;23.27;;;3.50;99.90;;;7.05;60.27;97808.59;5003780;28;20046;-55
2022/12/02 07:11:58;;;;;;;48.23;24.20;;;3.50;99.90;;;7.01;60.43;97796.59;5004099;28;20039;-51
2022/12/02 07:14:44;;;;;;;59.57;23.17;;;3.50;99.90;;;7.04;59.93;97804.28;5004004;28;20057;-56
2022/12/02 07:17:22;;;;;;;48.20;22.33;;;3.50;99.90;;;7.06;60.25;97797.03;4998739;28;20403;-56
2022/12/02 07:20:31;;;;;;;47.83;21.77;;;3.50;99.90;;;7.00;60.54;97800.19;4987378;28;20054;-56
2022/12/02 07:23:19;;;;;;;46.10;21.13;;;3.50;99.90;;;6.81;60.73;97801.81;5004257;28;20046;-57
2022/12/02 07:25:58;;;;;;;54.03;22.20;;;3.40;99.90;;;6.95;60.56;97800.59;5003863;28;20050;-58
2022/12/02 07:28:41;;;;;;;52.77;22.43;;;3.40;99.90;;;7.08;60.18;97801.22;5003740;28;20238;-56
2022/12/02 07:31:20;;;;;;;56.37;22.70;;;3.60;99.90;;;7.17;60.69;97801.34;4997955;28;20371;-56
2022/12/02 07:33:48;;;;;;;47.60;20.17;;;3.60;99.90;;;7.25;59.91;97804.16;5005279;28;20057;-59
2022/12/02 07:36:17;;;;;;;51.87;21.30;;;3.70;99.90;;;7.22;60.08;97799.16;5019890;28;20052;-57
2022/12/02 07:38:45;;;;;;;46.07;22.57;;;3.70;99.90;;;7.21;59.76;97795.69;5004255;28;20249;-55
2022/12/02 07:41:36;;;;;;;52.97;22.87;;;3.70;99.90;;;7.13;60.62;97799.97;5011055;28;20073;-55
2022/12/02 07:44:05;;;;;;;59.30;24.17;;;3.60;99.90;;;7.22;60.09;97796.50;5019369;28;20052;-58
2022/12/02 07:46:33;;;;;;;56.93;24.60;;;3.70;99.90;;;7.29;59.71;97802.94;5005050;28;20260;-54
2022/12/02 07:49:01;;;;;;;51.07;21.50;;;3.80;99.90;;;7.37;59.77;97796.97;5004429;28;20056;-55
2022/12/02 07:51:29;;;;;;;50.37;20.73;;;3.80;99.90;;;7.37;59.59;97797.78;5003378;28;20050;-56
2022/12/02 07:53:56;;;;;;;47.77;23.00;;;3.80;99.90;;;7.39;59.84;97801.13;5008594;28;20065;-56
2022/12/02 07:56:24;;;;;;;44.17;18.10;;;3.80;99.90;;;7.10;60.24;97796.63;5003553;28;20047;-56
2022/12/02 07:58:53;;;;;;;46.27;19.97;;;3.60;99.90;;;7.14;60.12;97799.00;5003633;28;20345;-56
2022/12/02 08:01:39;;;;;;;47.77;22.40;;;3.60;99.90;;;7.16;60.02;97800.53;5004558;28;20076;-57
2022/12/02 08:04:08;;;;;;;46.67;18.43;;;3.60;99.90;;;7.18;59.97;97798.59;5004293;28;20046;-54
2022/12/02 08:06:36;;;;;;;47.07;20.17;;;3.60;99.90;;;7.09;60.30;97799.38;5003145;28;20084;-59
2022/12/02 08:09:08;;;;;;;39.70;19.90;;;3.60;99.90;;;7.09;60.63;97794.09;4996226;28;20042;-58
2022/12/02 08:11:36;;;;;;;39.37;17.87;;;3.60;99.90;;;7.12;60.49;97788.53;5003923;28;20371;-58
2022/12/02 08:14:04;;;;;;;40.87;18.90;;;3.60;99.90;;;7.21;59.95;97793.03;4995412;28;20053;-58
2022/12/02 08:16:32;;;;;;;44.47;19.40;;;3.70;99.90;;;7.19;60.03;97792.31;5018963;28;20225;-55
2022/12/02 08:19:00;;;;;;;43.20;18.97;;;3.70;99.90;;;7.19;59.82;97799.41;5003653;28;20038;-57
2022/12/02 08:21:29;;;;;;;39.33;19.73;;;3.60;99.90;;;7.23;59.99;97798.16;5002791;28;20050;-56
2022/12/02 08:23:58;;;;;;;45.50;17.63;;;3.70;99.90;;;7.32;59.78;97799.16;5018591;28;20050;-57
2022/12/02 08:26:26;;;;;;;43.37;18.13;;;3.70;99.90;;;7.36;60.05;97793.44;5003867;28;20046;-57
2022/12/02 08:28:54;;;;;;;37.90;17.20;;;3.80;99.90;;;7.41;59.62;97798.34;5002126;28;20042;-58
2022/12/02 08:31:22;;;;;;;51.13;20.13;;;3.80;99.90;;;7.35;59.44;97791.78;5003520;28;20038;-57
2022/12/02 08:33:51;;;;;;;41.40;21.07;;;3.80;99.90;;;7.42;59.57;97800.84;5003626;28;20042;-57
2022/12/02 08:36:20;;;;;;;46.83;21.07;;;3.80;99.90;;;7.43;59.95;97791.94;5002488;28;20038;-57
2022/12/02 08:38:48;;;;;;;50.60;20.43;;;3.80;99.90;;;7.37;60.01;97794.31;5003417;28;20042;-59
2022/12/02 08:41:17;;;;;;;50.37;22.03;;;3.70;99.90;;;7.29;59.75;97793.19;5003461;28;20046;-57
2022/12/02 08:43:45;;;;;;;46.60;21.93;;;3.60;99.90;;;7.08;60.10;97790.63;5002309;28;20050;-55
2022/12/02 08:46:14;;;;;;;47.80;24.37;;;3.60;99.90;;;6.85;60.66;97792.63;5003303;28;20042;-57
2022/12/02 08:48:41;;;;;;;51.50;25.67;;;3.40;99.90;;;6.79;61.13;97792.34;5003165;28;20050;-58
2022/12/02 08:51:09;;;;;;;49.00;23.17;;;3.40;99.90;;;6.99;60.94;97786.13;5002494;28;20053;-56
2022/12/02 08:53:37;;;;;;;43.27;21.50;;;3.50;99.90;;;7.12;60.08;97780.59;5003285;28;20052;-56
2022/12/02 08:56:05;;;;;;;50.80;22.87;;;3.60;99.90;;;7.20;60.43;97782.56;5002682;28;20046;-57
2022/12/02 08:58:33;;;;;;;48.83;19.73;;;3.60;99.90;;;7.01;60.98;97780.72;5002255;28;20050;-54
2022/12/02 09:01:01;;;;;;;40.57;21.07;;;3.50;99.90;;;6.90;61.33;97779.00;5002299;28;20222;-58
2022/12/02 09:03:29;;;;;;;46.40;23.73;;;3.40;99.90;;;6.86;60.66;97783.75;5003239;28;20046;-56
2022/12/02 09:05:57;;;;;;;55.37;23.73;;;3.40;99.90;;;6.75;61.41;97778.53;5001939;28;20049;-57
2022/12/02 09:08:25;;;;;;;51.70;21.70;;;3.30;99.90;;;6.84;60.96;97775.09;5003072;28;20038;-54
2022/12/02 09:10:54;;;;;;;54.87;21.70;;;3.40;99.90;;;6.80;60.88;97778.97;5002851;28;20149;-57
2022/12/02 09:13:22;;;;;;;43.50;20.27;;;3.40;99.90;;;6.93;60.78;97773.44;5002818;28;20044;-58
2022/12/02 09:15:50;;;;;;;43.17;21.17;;;3.40;99.90;;;6.84;61.07;97780.41;5001900;28;20061;-57
2022/12/02 09:18:17;;;;;;;43.97;20.97;;;3.50;99.90;;;6.97;61.03;97771.38;5001874;28;20046;-57
2022/12/02 09:20:47;;;;;;;41.17;20.17;;;3.50;99.90;;;7.08;60.87;97773.91;5001275;28;20069;-57
2022/12/02 09:23:15;;;;;;;38.87;17.23;;;3.60;99.90;;;7.09;60.93;97771.13;5001920;28;20046;-55
2022/12/02 09:25:43;;;;;;;37.13;18.03;;;3.70;99.90;;;6.94;61.03;97772.47;5002488;28;20076;-57
2022/12/02 09:28:10;;;;;;;36.33;18.97;;;3.60;99.90;;;7.07;60.76;97767.75;5002822;28;20042;-56
2022/12/02 09:30:38;;;;;;;38.87;17.57;;;3.50;99.90;;;7.07;60.47;97775.69;5002164;28;20064;-57
2022/12/02 09:33:06;;;;;;;40.27;17.77;;;3.50;99.90;;;7.12;60.50;97775.31;5002856;28;20052;-55
2022/12/02 09:35:34;;;;;;;41.50;19.07;;;3.50;99.90;;;7.09;60.97;97773.78;5001534;28;20352;-57
2022/12/02 09:38:02;;;;;;;39.17;19.50;;;3.60;99.90;;;7.03;61.18;97776.13;5002622;28;20046;-58
2022/12/02 09:40:32;;;;;;;41.70;18.80;;;3.50;99.90;;;7.03;61.19;97771.66;5000808;28;20042;-58
2022/12/02 09:43:01;;;;;;;38.30;17.53;;;3.50;99.90;;;7.15;60.44;97768.88;5002542;28;20054;-56
2022/12/02 09:45:30;;;;;;;37.50;17.13;;;3.50;99.90;;;7.11;60.88;97770.97;5002902;28;20050;-57
2022/12/02 09:47:58;;;;;;;33.33;16.70;;;3.60;99.90;;;7.23;60.52;97772.53;5001304;28;20257;-57
2022/12/02 09:50:26;;;;;;;38.60;17.73;;;3.70;99.90;;;7.30;60.75;97767.53;5002067;28;20052;-56
2022/12/02 09:53:04;;;;;;;30.73;15.50;;;3.80;99.90;;;7.36;60.40;97766.97;5001256;28;20061;-58
2022/12/02 09:55:33;;;;;;;30.13;14.10;;;3.80;99.90;;;7.32;60.17;97760.28;5000533;28;20047;-57
2022/12/02 09:58:18;;;;;;;31.37;14.07;;;3.80;99.90;;;7.36;60.15;97759.03;5001260;28;20050;-57
2022/12/02 10:00:49;;;;;;;31.40;15.07;;;3.80;99.90;;;7.39;60.32;97764.06;5001894;28;20047;-56
2022/12/02 10:03:25;;;;;;;29.53;14.73;;;3.80;99.90;;;7.45;60.10;97765.31;5002306;28;20050;-57
2022/12/02 10:05:54;;;;;;;25.60;13.70;;;3.90;99.90;;;7.50;59.92;97757.78;5001441;28;20341;-56
2022/12/02 10:08:27;;;;;;;27.83;14.03;;;4.00;99.90;;;7.54;60.25;97750.38;5002817;28;20056;-56
2022/12/02 10:10:58;;;;;;;29.02;13.60;;;4.00;99.90;;;7.51;59.63;97758.63;5001852;28;20050;-57
2022/12/02 10:13:26;;;;;;;23.07;11.70;;;3.90;99.90;;;7.40;59.81;97752.47;5017470;28;20050;-58
2022/12/02 10:15:54;;;;;;;25.97;12.67;;;3.80;99.90;;;7.32;60.17;97754.16;5000810;28;20275;-55
2022/12/02 10:18:29;;;;;;;27.03;13.33;;;3.70;99.90;;;7.28;60.55;97753.59;5002240;28;20251;-58
2022/12/02 10:20:57;;;;;;;23.57;13.43;;;3.70;99.90;;;7.26;60.54;97750.25;5000702;28;20310;-58
2022/12/02 10:23:27;;;;;;;26.83;13.03;;;3.70;99.90;;;7.25;60.08;97749.41;5001914;28;20067;-58
2022/12/02 10:26:13;;;;;;;25.43;12.20;;;3.70;99.90;;;7.17;60.26;97735.16;5001003;28;20046;-58
2022/12/02 10:28:42;;;;;;;25.20;12.53;;;3.70;99.90;;;7.26;60.17;97740.47;5003040;28;20050;-58
2022/12/02 10:31:14;;;;;;;21.97;11.53;;;3.60;99.90;;;7.28;60.21;97745.63;5004676;28;20046;-57
2022/12/02 10:34:03;;;;;;;19.73;10.60;;;3.60;99.90;;;7.21;59.85;97741.84;5004585;28;20042;-56
2022/12/02 10:36:41;;;;;;;16.80;8.83;;;3.60;99.90;;;7.01;60.80;97739.19;4999205;28;20058;-57
2022/12/02 10:39:19;;;;;;;16.23;8.53;;;3.60;99.90;;;7.01;60.50;97730.41;5004367;28;20039;-57
2022/12/02 10:42:04;;;;;;;18.10;9.97;;;3.50;99.90;;;7.07;60.93;97722.75;5005759;28;20060;-56
2022/12/02 10:44:41;;;;;;;19.47;11.13;;;3.60;99.90;;;7.20;60.45;97730.44;5006493;28;20050;-56